aviador You're here:

YPEA Decoded Metar

PEARCE (AUS-AFB) in AUSTRALIA
Report Time2018-05-28 05:00:00
UTC Time2018-05-28 05:15:53
Flight Rules vfr VFR
Wind280° at 04 kt
W.Decomp.*RWY 23: 2.5 kt HW 3.1 kt RCW
RWY 36: 0.8 kt HW 3.9 kt LCW
W.Rank280° ranks 32
Current wind is below 280° avg. (9.1)
Visibility9999 m
Phenomena:N/A
Clouds:Scattered 035 Hf
Broken 055 Hf
Expected CloudBase > 3,600 ft AGL from Temp-Dew spread
Ceiling5,500 ft
Temp18°C (ISA +3)
Dew Point09°C (56% RH)
AAT16.4°C
QNH1023 hPa
Density Alt371 ft
Elevation161 ft
Report Wrong Elevation
Raw Report
METAR YPEA 280500Z 28004KT 250V320 9999 SCT035 BKN055 18/09 Q1023
NOSIG=

Extra information for YPEA:More info

Metar Taf Metar & Taf Last 4 Metars F.Rules Stats Wind Profile Meteogram Temp Stats Airport Information Weather charts Add Link Nearby VenuesMetar ALERT Operation Metar Decoded Social comments